Latest Weather Observations for Mornington Island Airport

IDQ60801

Issued at 4:02 pm EST Wednesday 26 April 2017 (issued every 30 minutes, with the page automatically refreshed every 10 minutes)

About weather observations | Map of weather stations | Latest weather observations for QLD | Other Formats
Station Details ID: 029182 Name: MORNINGTON ISLAND AIRPORT Lat: -16.66 Lon: 139.17 Height: 9.52 m
Data from the previous 72 hours. | See also: Recent months at Mornington Island Airport
Date/Time
EST
Temp
°C
App
Temp
°C
Dew
Point
°C
Rel
Hum
%
Delta-T
°C
Wind Press
QNH
hPa
Press
MSL
hPa
Rain since
9am
mm
Dir  Spd
km/h
Gust
km/h
Spd
kts
Gust
kts
26/03:30pm 30.3 32.0 23.0 65 5.0 SE 19 28 10 15 1011.3 1011.2 0.0
26/03:00pm 30.7 32.7 23.6 66 4.9 SE 19 26 10 14 1011.6 1011.5 0.0
26/02:30pm 30.8 32.4 23.2 64 5.2 SE 20 30 11 16 1011.7 1011.6 0.0
26/02:00pm 31.6 33.0 22.9 60 6.0 SE 20 33 11 18 1011.8 1011.7 0.0
26/01:30pm 30.5 31.4 21.9 60 5.8 SE 20 30 11 16 1012.3 1012.2 0.0
26/01:00pm 30.1 31.1 21.7 60 5.7 SE 19 26 10 14 1012.5 1012.4 0.0
26/12:30pm 30.1 31.1 21.7 60 5.7 SSE 19 30 10 16 1013.1 1013.0 0.0
26/12:00pm 29.8 31.5 21.7 61 5.5 SSE 15 24 8 13 1013.3 1013.2 0.0
26/11:30am 30.1 31.9 22.5 63 5.2 SSE 17 28 9 15 1014.0 1013.9 0.0
26/11:00am 30.2 32.8 23.9 69 4.4 SSE 17 26 9 14 1014.1 1014.0 0.0
26/10:30am 29.5 31.7 23.2 69 4.3 SSE 17 26 9 14 1014.1 1014.0 0.0
26/10:00am 29.0 32.2 23.7 73 3.7 SE 13 20 7 11 1013.6 1013.5 0.0
26/09:30am 28.0 31.3 23.2 75 3.3 SE 11 15 6 8 1013.5 1013.4 0.0
26/09:00am 26.8 31.4 24.1 85 1.9 S 7 13 4 7 1013.2 1013.1 0.0
26/08:30am 25.9 30.5 24.1 90 1.2 S 7 13 4 7 1012.9 1012.8 0.0
26/08:00am 24.6 28.9 23.6 94 0.7 S 7 9 4 5 1012.6 1012.5 0.0
26/07:30am 24.6 29.2 24.1 97 0.3 S 7 9 4 5 1012.3 1012.2 0.0
26/07:00am 23.5 27.2 22.5 94 0.7 SSW 7 9 4 5 1012.0 1011.9 0.0
26/06:30am 23.5 28.4 22.3 93 0.8 CALM 0 0 0 0 1011.7 1011.6 0.0
26/06:00am 23.6 28.5 22.4 93 0.8 CALM 0 0 0 0 1011.6 1011.5 0.0
26/05:30am 23.6 27.9 22.0 91 1.1 S 2 6 1 3 1011.3 1011.2 0.0
26/05:00am 23.9 27.7 22.7 93 0.8 SSW 7 7 4 4 1011.1 1011.0 0.0
26/04:30am 23.8 28.3 22.2 91 1.1 S 2 6 1 3 1011.1 1011.0 0.0
26/04:00am 23.9 28.4 22.3 91 1.1 S 2 6 1 3 1011.2 1011.1 0.0
26/03:30am 24.0 28.3 22.6 92 0.9 SSW 4 6 2 3 1011.3 1011.2 0.0
26/03:00am 24.2 28.5 23.3 95 0.6 S 6 7 3 4 1011.5 1011.4 0.0
26/02:30am 24.2 29.5 23.0 93 0.8 CALM 0 0 0 0 1011.7 1011.6 0.0
26/02:00am 24.0 29.1 22.6 92 0.9 CALM 0 0 0 0 1012.0 1011.9 0.0
26/01:30am 24.3 29.4 22.7 91 1.1 CALM 0 0 0 0 1012.3 1012.2 0.0
26/01:00am 24.2 29.3 22.6 91 1.1 CALM 0 0 0 0 1012.5 1012.4 0.0
26/12:30am 24.3 29.4 22.7 91 1.1 CALM 0 0 0 0 1012.7 1012.6 0.0
26/12:00am 24.2 29.3 22.6 91 1.1 CALM 0 0 0 0 1012.9 1012.8 0.0
 
Date/Time
EST
Temp
°C
App
Temp
°C
Dew
Point
°C
Rel
Hum
%
Delta-T
°C
Wind Press
QNH
hPa
Press
MSL
hPa
Rain since
9am
mm
Dir  Spd
km/h
Gust
km/h
Spd
kts
Gust
kts
25/11:30pm 24.3 29.4 22.6 90 1.1 CALM 0 0 0 0 1013.1 1013.0 0.0
25/11:00pm 24.3 28.9 22.4 89 1.3 SW 2 6 1 3 1013.2 1013.1 0.0
25/10:30pm 24.6 29.6 22.5 88 1.4 CALM 0 0 0 0 1013.4 1013.3 0.0
25/10:00pm 24.7 29.8 22.6 88 1.4 CALM 0 0 0 0 1013.5 1013.4 0.0
25/09:30pm 25.0 30.1 22.7 87 1.5 CALM 0 0 0 0 1013.4 1013.3 0.0
25/09:00pm 25.5 30.3 22.8 85 1.8 SW 2 4 1 2 1013.4 1013.3 0.0
25/08:30pm 25.9 30.0 23.0 84 2.0 SW 6 6 3 3 1013.3 1013.2 0.0
25/08:00pm 27.0 31.1 23.0 79 2.7 WSW 6 9 3 5 1012.9 1012.8 0.0
25/07:30pm 27.1 31.2 22.9 78 2.9 W 6 7 3 4 1012.6 1012.5 0.0
25/07:00pm 27.4 31.4 22.8 76 3.1 WNW 6 6 3 3 1012.2 1012.1 0.0
25/06:30pm 28.3 32.4 23.0 73 3.6 NW 6 7 3 4 1012.0 1011.9 0.0
25/06:00pm 29.2 33.3 23.2 70 4.1 WNW 7 9 4 5 1011.7 1011.6 0.0
25/05:30pm 30.0 33.3 23.2 67 4.7 NNW 11 15 6 8 1011.3 1011.2 0.0
25/05:00pm 30.2 33.4 23.1 65 4.9 NW 11 15 6 8 1011.0 1010.9 0.0
25/04:30pm 30.5 33.4 23.2 65 5.0 NW 13 19 7 10 1010.8 1010.7 0.0
25/04:00pm 30.8 33.3 23.2 64 5.2 NW 15 19 8 10 1010.8 1010.7 0.0
25/03:30pm 31.0 33.3 23.4 64 5.2 NW 17 20 9 11 1011.1 1011.0 0.0
25/03:00pm 30.7 33.0 23.4 65 5.0 NW 17 20 9 11 1011.3 1011.2 0.0
25/02:30pm 30.2 33.1 23.1 65 4.9 NW 13 15 7 8 1011.5 1011.4 0.0
25/02:00pm 30.5 33.4 22.4 62 5.5 N 11 17 6 9 1011.7 1011.6 0.0
25/01:30pm 30.5 33.6 22.9 64 5.2 NNE 11 15 6 8 1012.3 1012.2 0.0
25/01:00pm 30.0 32.0 22.2 63 5.3 NE 15 22 8 12 1012.7 1012.6 0.0
25/12:30pm 29.5 30.7 22.2 65 4.9 NE 19 24 10 13 1013.0 1012.9 0.0
25/12:00pm 29.0 30.0 22.2 66 4.6 ENE 20 32 11 17 1013.6 1013.5 0.0
25/11:30am 30.4 31.7 23.3 66 4.9 E 22 30 12 16 1013.9 1013.8 0.0
25/11:00am 29.6 29.6 23.1 68 4.5 E 28 39 15 21 1014.2 1014.1 0.0
25/10:30am 29.5 30.8 23.4 69 4.2 ESE 22 33 12 18 1014.2 1014.1 0.0
25/10:00am 29.8 32.4 23.3 68 4.5 SE 15 24 8 13 1014.2 1014.1 0.0
25/09:30am 29.2 31.2 22.9 69 4.3 SE 17 28 9 15 1014.1 1014.0 0.0
25/09:00am 29.2 31.9 23.4 71 4.0 SE 15 20 8 11 1013.7 1013.6 0.0
25/08:30am 27.8 32.0 23.4 77 3.0 SE 7 11 4 6 1013.4 1013.3 0.0
25/08:00am 26.3 30.1 22.8 81 2.4 ESE 7 9 4 5 1013.1 1013.0 0.0
25/07:30am 24.3 27.6 21.8 86 1.7 SE 7 9 4 5 1012.7 1012.6 0.0
25/07:00am 23.7 26.4 21.4 87 1.5 SSE 9 11 5 6 1012.1 1012.0 0.0
25/06:30am 23.4 25.7 20.7 85 1.8 SSE 9 11 5 6 1011.7 1011.6 0.0
25/06:00am 22.1 24.0 19.8 87 1.5 SSE 9 11 5 6 1011.2 1011.1 0.0
25/05:30am 23.2 25.9 20.7 86 1.6 S 7 9 4 5 1011.1 1011.0 0.0
25/05:00am 23.0 25.8 20.9 88 1.4 S 7 7 4 4 1011.1 1011.0 0.0
25/04:30am 23.0 26.1 21.1 89 1.2 SSW 6 7 3 4 1011.1 1011.0 0.0
25/04:00am 23.1 26.3 21.2 89 1.2 SSW 6 9 3 5 1011.0 1010.9 0.0
25/03:30am 23.2 26.6 21.6 91 1.1 S 6 7 3 4 1011.1 1011.0 0.0
25/03:00am 23.1 26.4 21.4 90 1.1 S 6 7 3 4 1011.4 1011.3 0.0
25/02:30am 23.5 27.9 21.4 88 1.4 CALM 0 0 0 0 1011.9 1011.8 0.0
25/02:00am 23.6 28.1 21.5 88 1.4 CALM 0 0 0 0 1012.3 1012.2 0.0
25/01:30am 23.6 28.1 21.5 88 1.4 CALM 0 0 0 0 1012.5 1012.4 0.0
25/01:00am 23.5 27.3 21.0 86 1.6 SSE 2 6 1 3 1012.9 1012.8 0.0
25/12:30am 23.6 27.0 20.9 85 1.8 SSE 4 6 2 3 1012.9 1012.8 0.0
25/12:00am 23.8 26.7 20.7 83 2.0 SSE 6 6 3 3 1013.1 1013.0 0.0
 
Date/Time
EST
Temp
°C
App
Temp
°C
Dew
Point
°C
Rel
Hum
%
Delta-T
°C
Wind Press
QNH
hPa
Press
MSL
hPa
Rain since
9am
mm
Dir  Spd
km/h
Gust
km/h
Spd
kts
Gust
kts
24/11:30pm 24.6 28.1 21.1 81 2.3 S 4 7 2 4 1013.2 1013.1 0.0
24/11:00pm 24.9 27.7 20.4 76 2.9 SSE 6 7 3 4 1013.3 1013.2 0.0
24/10:30pm 24.1 26.9 20.8 82 2.2 SE 7 7 4 4 1013.3 1013.2 0.0
24/10:00pm 24.5 28.9 21.4 83 2.0 CALM 0 0 0 0 1013.6 1013.5 0.0
24/09:30pm 24.6 28.9 21.1 81 2.3 CALM 0 0 0 0 1013.7 1013.6 0.0
24/09:00pm 24.9 29.3 21.4 81 2.3 CALM 0 0 0 0 1013.4 1013.3 0.0
24/08:30pm 25.1 29.4 21.2 79 2.6 CALM 0 0 0 0 1013.1 1013.0 0.0
24/08:00pm 25.5 29.8 21.2 77 2.8 CALM 0 0 0 0 1012.6 1012.5 0.0
24/07:30pm 26.3 30.4 20.8 71 3.6 CALM 0 2 0 1 1012.4 1012.3 0.0
24/07:00pm 26.9 29.8 20.7 69 4.1 ESE 6 7 3 4 1012.2 1012.1 0.0
24/06:30pm 27.8 30.5 20.6 65 4.7 ESE 7 9 4 5 1011.9 1011.8 0.0
24/06:00pm 29.0 31.0 20.7 61 5.5 ESE 11 15 6 8 1011.6 1011.5 0.0
24/05:30pm 29.9 32.0 20.2 56 6.4 SSE 9 13 5 7 1011.5 1011.4 0.0
24/05:00pm 30.6 32.7 20.2 53 6.9 SSE 9 15 5 8 1011.3 1011.2 0.0
24/04:30pm 31.1 32.6 19.8 51 7.4 SE 11 19 6 10 1011.1 1011.0 0.0
24/04:00pm 32.0 33.5 21.2 52 7.3 ESE 15 20 8 11 1011.3 1011.2 0.0
24/03:30pm 31.9 32.4 19.2 47 8.3 SE 15 19 8 10 1011.5 1011.4 0.0
24/03:00pm 32.4 32.8 18.9 44 8.8 ESE 15 20 8 11 1011.7 1011.6 0.0
24/02:30pm 31.6 32.2 20.2 50 7.6 SE 17 22 9 12 1011.9 1011.8 0.0
24/02:00pm 32.0 32.8 20.6 51 7.6 ESE 17 22 9 12 1012.3 1012.2 0.0
24/01:30pm 31.7 32.8 21.2 53 7.1 ESE 17 24 9 13 1012.6 1012.5 0.0
24/01:00pm 31.7 33.5 21.8 55 6.7 ESE 15 24 8 13 1012.9 1012.8 0.0
24/12:30pm 31.7 33.2 22.7 59 6.2 ESE 19 28 10 15 1013.3 1013.2 0.0
24/12:00pm 31.3 33.0 22.3 58 6.1 ESE 17 24 9 13 1013.6 1013.5 0.0
24/11:30am 31.7 32.6 21.5 54 6.9 ESE 19 26 10 14 1014.0 1013.9 0.0
24/11:00am 31.7 32.5 21.8 55 6.7 E 20 28 11 15 1014.2 1014.1 0.0
24/10:30am 31.2 31.8 21.4 56 6.6 ENE 20 32 11 17 1014.2 1014.1 0.0
24/10:00am 30.4 31.4 22.8 64 5.2 ENE 22 30 12 16 1014.2 1014.1 0.0
24/09:30am 30.0 31.3 23.4 67 4.5 ENE 22 33 12 18 1014.1 1014.0 0.0
24/09:00am 29.3 31.0 23.0 69 4.3 E 19 24 10 13 1013.9 1013.8 0.0
24/08:30am 28.7 30.2 22.7 70 4.1 E 19 26 10 14 1013.5 1013.4 0.0
24/08:00am 27.8 31.1 23.2 76 3.1 SE 11 17 6 9 1013.2 1013.1 0.0
24/07:30am 26.8 30.4 23.1 80 2.5 SE 9 15 5 8 1012.9 1012.8 0.0
24/07:00am 26.4 29.0 22.7 80 2.5 SE 13 19 7 10 1012.5 1012.4 0.0
24/06:30am 24.6 28.0 22.7 89 1.3 ESE 9 11 5 6 1012.2 1012.1 0.0
24/06:00am 22.8 25.8 22.0 95 0.5 ESE 9 11 5 6 1011.9 1011.8 0.0
24/05:30am 22.1 24.8 20.7 92 0.9 ESE 7 9 4 5 1011.4 1011.3 0.0
24/05:00am 22.5 26.8 21.1 92 0.9 CALM 0 0 0 0 1011.3 1011.2 0.0
24/04:30am 22.5 26.6 20.8 90 1.1 CALM 0 0 0 0 1011.2 1011.1 0.0
24/04:00am 22.8 27.2 21.3 91 1.0 CALM 0 0 0 0 1011.4 1011.3 0.0
24/03:30am 22.8 27.2 21.3 91 1.0 CALM 0 0 0 0 1011.6 1011.5 0.0
24/03:00am 23.0 27.4 21.3 90 1.1 CALM 0 0 0 0 1011.6 1011.5 0.0
24/02:30am 22.9 27.1 21.0 89 1.2 CALM 0 0 0 0 1011.9 1011.8 0.0
24/02:00am 23.3 27.7 21.4 89 1.3 CALM 0 0 0 0 1012.2 1012.1 0.0
24/01:30am 23.3 27.7 21.4 89 1.3 CALM 0 0 0 0 1012.6 1012.5 0.0
24/01:00am 23.1 27.3 21.0 88 1.4 CALM 0 0 0 0 1013.0 1012.9 0.0
24/12:30am 23.4 27.8 21.3 88 1.4 CALM 0 0 0 0 1013.4 1013.3 0.0
24/12:00am 23.5 27.5 21.4 88 1.4 NNE 2 6 1 3 1013.5 1013.4 0.0
 
Date/Time
EST
Temp
°C
App
Temp
°C
Dew
Point
°C
Rel
Hum
%
Delta-T
°C
Wind Press
QNH
hPa
Press
MSL
hPa
Rain since
9am
mm
Dir  Spd
km/h
Gust
km/h
Spd
kts
Gust
kts
23/11:30pm 24.0 28.8 22.1 89 1.3 CALM 0 7 0 4 1013.6 1013.5 0.0
23/11:00pm 24.0 28.5 21.5 86 1.7 CALM 0 0 0 0 1013.6 1013.5 0.0
23/10:30pm 24.3 28.8 21.6 85 1.8 CALM 0 0 0 0 1013.7 1013.6 0.0
23/10:00pm 24.6 29.1 21.5 83 2.1 CALM 0 0 0 0 1013.9 1013.8 0.0
23/09:30pm 25.0 29.1 21.5 81 2.3 S 2 6 1 3 1013.8 1013.7 0.0
23/09:00pm 25.4 28.9 21.9 81 2.3 S 6 7 3 4 1013.8 1013.7 0.0
23/08:30pm 25.3 28.5 21.2 78 2.7 S 6 7 3 4 1013.5 1013.4 0.0
23/08:00pm 26.1 29.3 21.3 75 3.2 S 6 9 3 5 1013.3 1013.2 0.0
23/07:30pm 26.1 29.1 21.3 75 3.2 S 7 11 4 6 1013.1 1013.0 0.0
23/07:00pm 26.7 29.7 21.2 72 3.6 S 7 9 4 5 1012.9 1012.8 0.0
23/06:30pm 27.8 30.5 20.6 65 4.7 SE 7 11 4 6 1012.9 1012.8 0.0
23/06:00pm 29.0 31.2 20.4 59 5.7 ESE 9 11 5 6 1012.6 1012.5 0.0
23/05:30pm 29.0 30.8 21.2 62 5.2 SE 13 19 7 10 1012.4 1012.3 0.0
23/05:00pm 29.9 31.8 21.3 60 5.8 SE 13 20 7 11 1012.1 1012.0 0.0
23/04:30pm 30.4 31.7 20.9 57 6.3 SE 15 20 8 11 1012.0 1011.9 0.0

Other Formats:

Comma delimited format used in spreadsheet applications
http://www.bom.gov.au/fwo/IDQ60801/IDQ60801.94254.axf

JavaScript Object Notation format (JSON) in row-major order
http://www.bom.gov.au/fwo/IDQ60801/IDQ60801.94254.json